createdAt,value
2022-09-05T00:01:28.945Z,101820.44
2022-09-05T00:04:08.401Z,101811.91
2022-09-05T00:06:52.754Z,101819.03
2022-09-05T00:09:24.311Z,101809.41
2022-09-05T00:11:59.782Z,101814.56
2022-09-05T00:14:34.416Z,101813.97
2022-09-05T00:17:23.400Z,101817.94
2022-09-05T00:24:23.269Z,101816.66
2022-09-05T00:24:29.051Z,101818.53
2022-09-05T00:25:49.585Z,101813.38
2022-09-05T00:28:26.851Z,101823.53
2022-09-05T00:31:50.727Z,101818.63
2022-09-05T00:33:50.220Z,101816.16
2022-09-05T00:36:22.107Z,101818.84
2022-09-05T00:38:53.656Z,101817.44
2022-09-05T00:41:25.538Z,101822.00
2022-09-05T00:43:58.412Z,101821.41
2022-09-05T00:46:32.063Z,101823.63
2022-09-05T00:49:03.767Z,101818.13
2022-09-05T00:51:35.694Z,101824.09
2022-09-05T00:54:07.221Z,101831.56
2022-09-05T00:56:39.058Z,101831.19
2022-09-05T00:59:10.586Z,101833.28
2022-09-05T01:01:42.524Z,101835.53
2022-09-05T01:04:14.089Z,101831.84
2022-09-05T01:06:45.947Z,101837.72
2022-09-05T01:09:17.470Z,101835.41
2022-09-05T01:11:49.767Z,101841.00
2022-09-05T01:14:21.787Z,101842.28
2022-09-05T01:16:53.382Z,101836.09
2022-09-05T01:19:25.397Z,101830.78
2022-09-05T01:21:56.939Z,101830.78
2022-09-05T01:24:28.899Z,101838.72
2022-09-05T01:27:00.418Z,101824.91
2022-09-05T01:29:32.417Z,101829.47
2022-09-05T01:32:03.936Z,101827.81
2022-09-05T01:34:35.822Z,101825.13
2022-09-05T01:37:07.345Z,101831.53
2022-09-05T01:40:14.549Z,101830.59
2022-09-05T01:42:47.189Z,101829.75
2022-09-05T01:45:19.042Z,101835.94
2022-09-05T01:47:50.578Z,101835.94
2022-09-05T01:50:23.422Z,101836.38
2022-09-05T01:52:57.751Z,101838.25
2022-09-05T01:55:34.894Z,101840.50
2022-09-05T01:58:25.266Z,101840.09
2022-09-05T02:00:57.109Z,101838.00
2022-09-05T02:03:48.603Z,101845.88
2022-09-05T02:06:20.427Z,101842.16
2022-09-05T02:08:51.961Z,101836.78
2022-09-05T02:11:35.785Z,101851.84
2022-09-05T02:14:07.819Z,101844.19
2022-09-05T02:16:39.646Z,101849.19
2022-09-05T02:19:15.032Z,101852.72
2022-09-05T02:21:56.062Z,101852.34
2022-09-05T02:24:28.725Z,101849.66
2022-09-05T02:27:00.934Z,101853.00
2022-09-05T02:29:32.455Z,101856.28
2022-09-05T02:32:04.407Z,101852.19
2022-09-05T02:34:35.918Z,101849.28
2022-09-05T02:37:08.558Z,101853.00
2022-09-05T02:45:07.848Z,101851.38
2022-09-05T02:45:13.551Z,101853.22
2022-09-05T02:45:26.774Z,101852.84
2022-09-05T02:47:58.950Z,101851.44
2022-09-05T02:56:17.927Z,101857.84
2022-09-05T02:57:29.755Z,101857.25
2022-09-05T02:58:05.729Z,101856.88
2022-09-05T02:59:11.008Z,101857.91
2022-09-05T03:01:43.033Z,101858.97
2022-09-05T03:04:14.573Z,101853.22
2022-09-05T03:06:46.541Z,101849.53
2022-09-05T03:09:18.086Z,101853.66
2022-09-05T03:11:50.012Z,101853.25
2022-09-05T03:14:21.535Z,101856.34
2022-09-05T03:16:53.496Z,101854.28
2022-09-05T03:19:25.047Z,101848.75
2022-09-05T03:21:56.857Z,101849.81
2022-09-05T03:24:28.379Z,101843.03
2022-09-05T03:27:00.254Z,101838.31
2022-09-05T03:29:31.778Z,101853.81
2022-09-05T03:32:03.583Z,101855.69
2022-09-05T03:34:35.532Z,101856.56
2022-09-05T03:37:07.054Z,101860.88
2022-09-05T03:39:39.157Z,101860.06
2022-09-05T03:42:14.626Z,101857.81
2022-09-05T03:44:47.096Z,101864.22
2022-09-05T03:47:18.624Z,101862.59
2022-09-05T03:53:28.057Z,101861.59
2022-09-05T03:57:16.384Z,101853.97
2022-09-05T03:57:22.992Z,101857.69
2022-09-05T03:58:41.947Z,101848.22
2022-09-05T04:03:14.483Z,101852.97
2022-09-05T04:08:17.766Z,101851.94
2022-09-05T04:08:19.337Z,101860.38
2022-09-05T04:09:53.701Z,101858.56
2022-09-05T04:12:25.333Z,101856.94
2022-09-05T04:14:57.267Z,101862.91
2022-09-05T04:17:28.857Z,101856.53
2022-09-05T04:20:01.119Z,101857.59
2022-09-05T04:22:32.638Z,101854.13
2022-09-05T04:25:04.237Z,101859.72
2022-09-05T04:27:36.231Z,101856.22
2022-09-05T04:30:36.160Z,101859.09
2022-09-05T04:32:59.565Z,101864.25
2022-09-05T04:35:31.465Z,101866.94
2022-09-05T04:38:02.976Z,101872.50
2022-09-05T04:40:34.979Z,101874.75
2022-09-05T04:43:06.692Z,101879.53
2022-09-05T04:45:38.566Z,101877.63
2022-09-05T04:48:11.118Z,101877.56
2022-09-05T04:50:44.092Z,101880.41
2022-09-05T04:53:15.742Z,101882.88
2022-09-05T04:55:51.004Z,101879.97
2022-09-05T04:58:22.711Z,101886.56
2022-09-05T05:06:02.966Z,101882.41
2022-09-05T05:06:17.345Z,101875.34
2022-09-05T05:06:46.543Z,101880.00
2022-09-05T05:09:18.641Z,101883.50
2022-09-05T05:17:53.970Z,101882.53
2022-09-05T05:18:06.251Z,101880.53
2022-09-05T05:18:14.369Z,101886.81
2022-09-05T05:20:41.689Z,101653.84
2022-09-05T05:23:15.179Z,101886.47
2022-09-05T05:25:47.145Z,101887.75
2022-09-05T05:28:32.063Z,101764.50
2022-09-05T05:31:03.631Z,101884.13
2022-09-05T05:33:35.179Z,101890.94
2022-09-05T05:36:07.030Z,101898.88
2022-09-05T05:38:38.769Z,101893.38
2022-09-05T05:41:10.570Z,101895.47
2022-09-05T05:43:46.271Z,101897.91
2022-09-05T05:46:18.659Z,101899.13
2022-09-05T05:48:57.457Z,101902.38
2022-09-05T05:51:54.705Z,101897.97
2022-09-05T05:54:21.681Z,101893.72
2022-09-05T05:56:53.223Z,101890.50
2022-09-05T05:59:25.085Z,101892.94
2022-09-05T06:01:57.511Z,101896.66
2022-09-05T06:04:29.143Z,101894.97
2022-09-05T06:07:00.979Z,101907.94
2022-09-05T06:14:52.022Z,101903.09
2022-09-05T06:14:56.829Z,101914.91
2022-09-05T06:15:22.063Z,101905.06
2022-09-05T06:17:54.429Z,101910.03
2022-09-05T06:22:04.752Z,101907.28
2022-09-05T06:23:39.933Z,101912.72
2022-09-05T06:26:13.179Z,101903.44
2022-09-05T06:28:44.720Z,101914.81
2022-09-05T06:31:30.166Z,101917.16
2022-09-05T06:34:02.607Z,101907.78
2022-09-05T06:36:34.628Z,101911.97
2022-09-05T06:39:06.376Z,101913.41
2022-09-05T06:41:38.192Z,101917.72
2022-09-05T06:44:12.800Z,101915.78
2022-09-05T06:47:05.825Z,101920.63
2022-09-05T06:49:39.327Z,101917.38
2022-09-05T06:52:29.739Z,101921.69
2022-09-05T06:55:02.115Z,101928.00
2022-09-05T06:57:34.007Z,101929.81
2022-09-05T07:00:18.189Z,101931.94
2022-09-05T07:02:59.993Z,101936.84
2022-09-05T07:05:38.811Z,101933.09
2022-09-05T07:08:35.231Z,101933.41
2022-09-05T07:11:15.621Z,101931.47
2022-09-05T07:13:48.522Z,101932.41
2022-09-05T07:16:36.995Z,101935.78
2022-09-05T07:19:10.198Z,101937.25
2022-09-05T07:21:42.035Z,101944.56
2022-09-05T07:24:18.798Z,101939.19
2022-09-05T07:27:09.040Z,101936.91
2022-09-05T07:29:41.086Z,101935.34
2022-09-05T07:32:25.165Z,101943.19
2022-09-05T07:34:57.233Z,101932.19
2022-09-05T07:37:28.754Z,101937.28
2022-09-05T07:40:06.702Z,101939.53
2022-09-05T07:43:08.737Z,101937.03
2022-09-05T07:45:42.168Z,101937.84
2022-09-05T07:48:34.134Z,101941.53
2022-09-05T07:54:25.433Z,101950.09
2022-09-05T07:57:03.720Z,101942.94
2022-09-05T07:57:22.536Z,101945.03
2022-09-05T07:59:42.956Z,101948.63
2022-09-05T08:02:14.514Z,101942.44
2022-09-05T08:04:46.427Z,101942.56
2022-09-05T08:07:49.661Z,101936.06
2022-09-05T08:10:10.630Z,101935.06
2022-09-05T08:12:43.731Z,101940.91
2022-09-05T08:16:10.176Z,101937.25
2022-09-05T08:18:25.762Z,101941.59
2022-09-05T08:20:57.715Z,101821.69
2022-09-05T08:23:29.231Z,101941.53
2022-09-05T08:26:01.122Z,101934.81
2022-09-05T08:28:39.133Z,101932.56
2022-09-05T08:31:11.483Z,101930.13
2022-09-05T08:33:43.825Z,101927.19
2022-09-05T08:36:15.325Z,101926.13
2022-09-05T08:38:47.225Z,101928.81
2022-09-05T08:41:18.776Z,101923.66
2022-09-05T08:46:40.019Z,101921.53
2022-09-05T08:46:50.510Z,101915.25
2022-09-05T08:49:32.293Z,101912.19
2022-09-05T08:52:14.153Z,101909.13
2022-09-05T08:54:45.973Z,101908.09
2022-09-05T08:57:17.526Z,101902.66
2022-09-05T09:00:02.711Z,101894.56
2022-09-05T09:02:47.208Z,101895.59
2022-09-05T09:05:20.638Z,101891.09
2022-09-05T09:07:52.665Z,101893.47
2022-09-05T09:10:25.885Z,101888.22
2022-09-05T09:12:58.076Z,101886.28
2022-09-05T09:15:29.582Z,101884.41
2022-09-05T09:18:01.404Z,101885.91
2022-09-05T09:20:44.863Z,101893.41
2022-09-05T09:23:32.447Z,101887.69
2022-09-05T09:26:04.329Z,101890.31
2022-09-05T09:28:50.031Z,101886.78
2022-09-05T09:31:23.003Z,101886.91
2022-09-05T09:33:54.713Z,101884.72
2022-09-05T09:36:26.227Z,101884.31
2022-09-05T09:38:58.217Z,101891.69
2022-09-05T09:41:45.246Z,101892.00
2022-09-05T09:44:17.776Z,101879.31
2022-09-05T09:46:50.704Z,101878.09
2022-09-05T09:49:23.739Z,101892.16
2022-09-05T09:51:55.338Z,101883.28
2022-09-05T09:54:27.428Z,101877.03
2022-09-05T09:56:58.989Z,101870.00
2022-09-05T09:59:31.123Z,101871.31
2022-09-05T10:03:36.312Z,101870.97
2022-09-05T10:10:34.326Z,101871.97
2022-09-05T10:10:57.450Z,101868.50
2022-09-05T10:10:59.536Z,101870.41
2022-09-05T10:13:29.782Z,101853.19
2022-09-05T10:16:04.017Z,101866.47
2022-09-05T10:18:38.165Z,101863.63
2022-09-05T10:21:16.305Z,101853.44
2022-09-05T10:23:49.703Z,101848.63
2022-09-05T10:26:21.275Z,101847.41
2022-09-05T10:28:53.308Z,101851.03
2022-09-05T10:35:04.823Z,101852.78
2022-09-05T10:35:08.190Z,101855.63
2022-09-05T10:37:10.778Z,101843.22
2022-09-05T10:39:43.235Z,101837.09
2022-09-05T10:42:15.497Z,101835.88
2022-09-05T10:44:48.117Z,101831.19
2022-09-05T10:47:19.662Z,101822.50
2022-09-05T10:49:51.556Z,101816.25
2022-09-05T10:52:23.180Z,101821.97
2022-09-05T10:54:57.559Z,101813.97
2022-09-05T10:57:46.257Z,101802.09
2022-09-05T11:02:22.124Z,101804.91
2022-09-05T11:03:22.371Z,101808.38
2022-09-05T11:05:54.577Z,101814.97
2022-09-05T11:08:27.458Z,101800.41
2022-09-05T11:10:59.011Z,101795.19
2022-09-05T11:13:30.807Z,101795.00
2022-09-05T11:16:04.767Z,101790.84
2022-09-05T11:18:55.878Z,101793.38
2022-09-05T11:21:28.094Z,101788.19
2022-09-05T11:23:59.943Z,101788.50
2022-09-05T11:26:31.557Z,101795.66
2022-09-05T11:29:03.378Z,101792.72
2022-09-05T11:31:54.824Z,101794.38
2022-09-05T11:39:50.616Z,101783.59
2022-09-05T11:40:02.464Z,101779.78
2022-09-05T11:40:30.054Z,101776.88
2022-09-05T11:43:02.456Z,101774.34
2022-09-05T11:45:34.520Z,101779.53
2022-09-05T11:48:08.787Z,101784.19
2022-09-05T11:50:40.307Z,101783.63
2022-09-05T11:53:12.148Z,101773.50
2022-09-05T11:55:43.748Z,101776.66
2022-09-05T11:58:43.218Z,101769.13
2022-09-05T12:01:41.135Z,101766.13
2022-09-05T12:04:01.109Z,101768.47
2022-09-05T12:06:35.408Z,101774.16
2022-09-05T12:09:09.133Z,101765.19
2022-09-05T12:11:43.315Z,101769.41
2022-09-05T12:14:21.218Z,101762.41
2022-09-05T12:16:57.106Z,101769.81
2022-09-05T12:19:29.530Z,101764.47
2022-09-05T12:22:08.793Z,101756.28
2022-09-05T12:24:48.204Z,101753.41
2022-09-05T12:27:46.182Z,101750.94
2022-09-05T12:30:18.189Z,101740.84
2022-09-05T12:36:08.578Z,101751.19
2022-09-05T12:36:12.759Z,101747.34
2022-09-05T12:40:55.373Z,101745.09
2022-09-05T12:41:45.235Z,101737.50
2022-09-05T12:44:41.235Z,101738.97
2022-09-05T12:47:16.830Z,101737.50
2022-09-05T12:49:52.340Z,101738.00
2022-09-05T12:52:25.250Z,101731.56
2022-09-05T12:54:59.253Z,101727.88
2022-09-05T12:59:48.174Z,101725.66
2022-09-05T13:03:08.605Z,101736.19
2022-09-05T13:03:27.822Z,101730.72
2022-09-05T13:06:08.743Z,101723.63
2022-09-05T13:08:44.229Z,101731.31
2022-09-05T13:14:50.670Z,101723.63
2022-09-05T13:14:55.594Z,101724.22
2022-09-05T13:17:01.074Z,101731.34
2022-09-05T13:19:32.915Z,101720.69
2022-09-05T13:22:04.954Z,101718.38
2022-09-05T13:24:37.430Z,101721.09
2022-09-05T13:27:09.237Z,101717.66
2022-09-05T13:31:13.739Z,101716.06
2022-09-05T13:37:56.439Z,101701.75
2022-09-05T13:38:11.257Z,101709.44
2022-09-05T13:38:47.925Z,101714.31
2022-09-05T13:41:27.248Z,101717.13
2022-09-05T13:44:25.591Z,101702.97
2022-09-05T13:46:58.490Z,101704.69
2022-09-05T13:49:32.209Z,101709.47
2022-09-05T13:52:05.708Z,101701.75
2022-09-05T13:54:37.299Z,101701.44
2022-09-05T13:57:16.272Z,101702.16
2022-09-05T14:00:03.073Z,101692.31
2022-09-05T14:02:35.019Z,101705.81
2022-09-05T14:05:20.075Z,101694.88
2022-09-05T14:07:52.493Z,101698.59
2022-09-05T14:10:24.051Z,101690.69
2022-09-05T14:13:00.829Z,101698.47
2022-09-05T14:15:33.161Z,101694.63
2022-09-05T14:18:20.244Z,101695.16
2022-09-05T14:21:12.420Z,101686.09
2022-09-05T14:23:45.432Z,101687.97
2022-09-05T14:26:16.950Z,101687.81
2022-09-05T14:28:49.495Z,101687.28
2022-09-05T14:35:45.659Z,101677.78
2022-09-05T14:37:43.566Z,101680.47
2022-09-05T14:37:48.499Z,101682.59
2022-09-05T14:39:56.425Z,101681.78
2022-09-05T14:42:28.497Z,101677.03
2022-09-05T14:45:00.008Z,101673.19
2022-09-05T14:47:32.301Z,101673.88
2022-09-05T14:50:07.204Z,101668.00
2022-09-05T14:52:43.975Z,101663.81
2022-09-05T15:02:43.969Z,101671.34
2022-09-05T15:02:54.498Z,101664.28
2022-09-05T15:06:32.976Z,101662.25
2022-09-05T15:12:14.375Z,101660.31
2022-09-05T15:12:28.576Z,101656.44
2022-09-05T15:14:50.113Z,101651.22
2022-09-05T15:17:24.919Z,101649.00
2022-09-05T15:20:05.728Z,101639.75
2022-09-05T15:22:39.987Z,101647.66
2022-09-05T15:25:16.820Z,101646.22
2022-09-05T15:27:49.832Z,101646.34
2022-09-05T15:30:21.390Z,101647.41
2022-09-05T15:32:53.402Z,101641.59
2022-09-05T15:35:24.899Z,101643.28
2022-09-05T15:37:56.430Z,101651.38
2022-09-05T15:40:27.974Z,101643.63
2022-09-05T15:43:00.788Z,101646.56
2022-09-05T15:45:32.356Z,101638.69
2022-09-05T15:48:04.477Z,101644.91
2022-09-05T15:50:35.973Z,101642.22
2022-09-05T15:53:07.600Z,101635.91
2022-09-05T15:55:39.128Z,101632.78
2022-09-05T15:58:11.069Z,101646.88
2022-09-05T16:00:42.627Z,101640.84
2022-09-05T16:03:42.592Z,101637.81
2022-09-05T16:10:31.608Z,101642.09
2022-09-05T16:10:40.244Z,101639.44
2022-09-05T16:12:16.865Z,101634.94
2022-09-05T16:14:43.556Z,101641.03
2022-09-05T16:23:15.376Z,101630.38
2022-09-05T16:23:27.782Z,101634.28
2022-09-05T16:23:39.357Z,101638.31
2022-09-05T16:26:06.995Z,101639.31
2022-09-05T16:28:41.396Z,101642.16
2022-09-05T16:31:13.091Z,101637.34
2022-09-05T16:33:44.959Z,101549.41
2022-09-05T16:36:16.589Z,101637.09
2022-09-05T16:38:50.400Z,101641.16
2022-09-05T16:41:24.602Z,101638.59
2022-09-05T16:43:56.538Z,101644.66
2022-09-05T16:46:28.135Z,101640.38
2022-09-05T16:49:00.004Z,101636.81
2022-09-05T16:51:35.499Z,101640.41
2022-09-05T16:54:10.299Z,101645.31
2022-09-05T16:56:42.936Z,101643.22
2022-09-05T16:59:15.759Z,101635.44
2022-09-05T17:01:47.777Z,101641.44
2022-09-05T17:04:26.576Z,101645.53
2022-09-05T17:06:58.971Z,101640.66
2022-09-05T17:09:30.666Z,101632.78
2022-09-05T17:12:02.655Z,101640.19
2022-09-05T17:14:34.316Z,101635.56
2022-09-05T17:17:43.911Z,101631.81
2022-09-05T17:20:07.333Z,101634.31
2022-09-05T17:26:08.333Z,101633.22
2022-09-05T17:29:23.473Z,101631.09
2022-09-05T17:29:34.133Z,101625.44
2022-09-05T17:34:08.270Z,101631.66
2022-09-05T17:36:41.365Z,101636.53
2022-09-05T17:39:14.744Z,101647.94
2022-09-05T17:41:46.686Z,101647.94
2022-09-05T17:44:19.309Z,101651.47
2022-09-05T17:46:52.118Z,101644.16
2022-09-05T17:49:23.644Z,101655.25
2022-09-05T17:51:55.351Z,101656.34
2022-09-05T17:54:26.872Z,101659.31
2022-09-05T17:56:58.478Z,101670.69
2022-09-05T17:59:31.469Z,101669.06
2022-09-05T18:02:03.416Z,101668.47
2022-09-05T18:04:35.120Z,101674.41
2022-09-05T18:07:06.777Z,101671.69
2022-09-05T18:09:39.741Z,101670.59
2022-09-05T18:13:11.902Z,101675.44
2022-09-05T18:15:05.197Z,101678.13
2022-09-05T18:17:40.205Z,101678.38
2022-09-05T18:20:11.835Z,101678.03
2022-09-05T18:22:43.658Z,101674.25
2022-09-05T18:25:28.410Z,101681.81
2022-09-05T18:28:06.665Z,101675.28
2022-09-05T18:30:38.529Z,101683.69
2022-09-05T18:33:53.837Z,101688.25
2022-09-05T18:36:01.833Z,101684.72
2022-09-05T18:38:51.823Z,101687.91
2022-09-05T18:41:24.718Z,101686.47
2022-09-05T18:44:12.436Z,101683.19
2022-09-05T18:46:46.647Z,101682.09
2022-09-05T18:50:23.969Z,101686.13
2022-09-05T18:52:10.915Z,101690.69
2022-09-05T18:54:42.895Z,101693.94
2022-09-05T18:57:28.243Z,101686.34
2022-09-05T19:00:00.626Z,101689.50
2022-09-05T19:02:49.845Z,101690.00
2022-09-05T19:05:28.824Z,101683.78
2022-09-05T19:08:00.970Z,101678.06
2022-09-05T19:10:36.510Z,101680.19
2022-09-05T19:13:08.484Z,101670.97
2022-09-05T19:15:40.321Z,101680.72
2022-09-05T19:18:36.971Z,101680.38
2022-09-05T19:21:11.878Z,101684.16
2022-09-05T19:23:43.703Z,101682.22
2022-09-05T19:26:15.279Z,101679.50
2022-09-05T19:36:47.126Z,101674.34
2022-09-05T19:36:52.702Z,101676.19
2022-09-05T19:37:22.637Z,101672.34
2022-09-05T19:37:39.655Z,101680.44
2022-09-05T19:47:30.752Z,101681.16
2022-09-05T19:47:42.048Z,101678.41
2022-09-05T19:47:49.235Z,101687.03
2022-09-05T19:48:50.448Z,101681.88
2022-09-05T19:51:26.739Z,101691.50
2022-09-05T19:54:04.839Z,101685.53
2022-09-05T19:56:37.909Z,101682.03
2022-09-05T19:59:09.452Z,101687.38
2022-09-05T20:01:41.288Z,101677.06
2022-09-05T20:04:16.397Z,101676.75
2022-09-05T20:06:47.984Z,101672.94
2022-09-05T20:09:19.509Z,101682.38
2022-09-05T20:11:51.133Z,101673.13
2022-09-05T20:14:23.000Z,101666.88
2022-09-05T20:16:54.532Z,101673.84
2022-09-05T20:19:28.847Z,101676.56
2022-09-05T20:22:14.390Z,101677.28
2022-09-05T20:24:52.868Z,101672.81
2022-09-05T20:27:27.515Z,101673.13
2022-09-05T20:30:00.303Z,101677.97
2022-09-05T20:32:39.304Z,101680.13
2022-09-05T20:37:21.374Z,101681.69
2022-09-05T20:43:18.293Z,101675.16
2022-09-05T20:43:35.204Z,101668.06
2022-09-05T20:43:50.168Z,101668.31
2022-09-05T20:47:46.443Z,101673.97
2022-09-05T20:54:19.758Z,101671.72
2022-09-05T20:54:28.758Z,101680.00
2022-09-05T20:54:59.100Z,101677.53
2022-09-05T20:57:50.816Z,101680.41
2022-09-05T21:00:22.618Z,101683.63
2022-09-05T21:02:56.142Z,101680.09
2022-09-05T21:05:28.370Z,101671.13
2022-09-05T21:08:07.646Z,101671.44
2022-09-05T21:10:47.170Z,101673.06
2022-09-05T21:13:28.331Z,101672.50
2022-09-05T21:16:00.036Z,101672.00
2022-09-05T21:18:33.323Z,101669.81
2022-09-05T21:21:28.057Z,101668.34
2022-09-05T21:23:57.455Z,101669.97
2022-09-05T21:26:32.473Z,101663.03
2022-09-05T21:29:04.412Z,101665.72
2022-09-05T21:31:36.430Z,101662.13
2022-09-05T21:34:09.564Z,101667.78
2022-09-05T21:36:43.127Z,101659.88
2022-09-05T21:39:17.257Z,101662.97
2022-09-05T21:41:50.254Z,101660.22
2022-09-05T21:47:34.443Z,101662.59
2022-09-05T21:47:46.174Z,101662.16
2022-09-05T21:50:30.505Z,101658.63
2022-09-05T21:55:51.780Z,101652.81
2022-09-05T21:59:14.250Z,101658.03
2022-09-05T21:59:24.926Z,101657.94
2022-09-05T22:01:52.336Z,101662.50
2022-09-05T22:04:24.881Z,101659.97
2022-09-05T22:06:57.563Z,101662.56
2022-09-05T22:09:29.156Z,101663.03
2022-09-05T22:12:00.744Z,101657.31
2022-09-05T22:14:41.935Z,101664.59
2022-09-05T22:17:14.364Z,101664.25
2022-09-05T22:19:47.095Z,101661.00
2022-09-05T22:22:18.619Z,101662.78
2022-09-05T22:24:50.164Z,101654.94
2022-09-05T22:27:22.148Z,101654.34
2022-09-05T22:29:55.502Z,101653.53
2022-09-05T22:32:32.311Z,101654.25
2022-09-05T22:35:15.740Z,101652.38
2022-09-05T22:37:59.676Z,101670.34
2022-09-05T22:40:31.605Z,101654.63
2022-09-05T22:43:03.495Z,101661.88
2022-09-05T22:45:35.093Z,101662.59
2022-09-05T22:48:07.049Z,101656.88
2022-09-05T22:50:38.601Z,101657.13
2022-09-05T22:53:10.793Z,101651.41
2022-09-05T22:55:42.314Z,101655.41
2022-09-05T22:58:14.285Z,101644.53
2022-09-05T23:00:46.173Z,101642.31
2022-09-05T23:03:18.184Z,101637.41
2022-09-05T23:05:49.912Z,101640.34
2022-09-05T23:08:21.881Z,101648.91
2022-09-05T23:10:53.453Z,101646.19
2022-09-05T23:13:25.454Z,101643.75
2022-09-05T23:15:57.139Z,101644.66
2022-09-05T23:18:28.685Z,101639.19
2022-09-05T23:21:00.218Z,101644.56
2022-09-05T23:23:31.998Z,101643.25
2022-09-05T23:26:03.569Z,101639.19
2022-09-05T23:28:39.449Z,101643.75
2022-09-05T23:31:13.826Z,101638.00
2022-09-05T23:33:45.776Z,101627.69
2022-09-05T23:36:17.301Z,101630.16
2022-09-05T23:38:49.081Z,101636.25
2022-09-05T23:41:20.613Z,101631.06
2022-09-05T23:43:52.514Z,101625.34
2022-09-05T23:46:24.438Z,101631.56
2022-09-05T23:48:56.055Z,101632.84
2022-09-05T23:51:28.099Z,101632.03
2022-09-05T23:53:59.680Z,101627.13
2022-09-05T23:56:31.639Z,101622.69
2022-09-05T23:59:03.205Z,101627.25
